Time;durP1;ratioP1;P1;durP2;ratioP2;P2;SDS_P1;SDS_P2;PMS_P1;PMS_P2;Temp;Humidity;BMP_temperature;BMP_pressure;BME280_temperature;BME280_humidity;BME280_pressure;Samples;Min_cycle;Max_cycle;Signal;HPM_P1;HPM_P2
2022/05/16 00:00:21;;;;;;;8.70;4.50;;;;;;;;;;5057475;28;20146;-88
2022/05/16 00:02:47;;;;;;;16.70;5.93;;;;;;;;;;5057601;28;20033;-87
2022/05/16 00:05:13;;;;;;;11.30;5.25;;;;;;;;;;5060706;28;20052;-83
2022/05/16 00:07:39;;;;;;;14.38;5.28;;;;;;;;;;5040749;28;20067;-86
2022/05/16 00:10:06;;;;;;;13.57;5.40;;;;;;;;;;5057933;28;20499;-86
2022/05/16 00:12:32;;;;;;;11.05;4.93;;;;;;;;;;5058630;28;20569;-87
2022/05/16 00:14:58;;;;;;;10.73;4.70;;;;;;;;;;5054096;28;20037;-84
2022/05/16 00:17:24;;;;;;;6.95;4.07;;;;;;;;;;5039103;28;20087;-85
2022/05/16 00:19:50;;;;;;;9.65;4.55;;;;;;;;;;5039090;28;20059;-85
2022/05/16 00:22:16;;;;;;;10.65;4.80;;;;;;;;;;5025437;28;20108;-84
2022/05/16 00:24:43;;;;;;;8.48;4.40;;;;;;;;;;5025141;28;20033;-88
2022/05/16 00:27:10;;;;;;;6.35;3.80;;;;;;;;;;5058945;28;20041;-84
2022/05/16 00:29:36;;;;;;;13.07;4.30;;;;;;;;;;5057807;28;20052;-84
2022/05/16 00:32:02;;;;;;;8.27;3.85;;;;;;;;;;5056503;28;20028;-85
2022/05/16 00:34:29;;;;;;;7.97;3.75;;;;;;;;;;5038734;28;20570;-86
2022/05/16 00:36:55;;;;;;;13.85;4.22;;;;;;;;;;5055475;28;20052;-85
2022/05/16 00:39:21;;;;;;;9.10;3.67;;;;;;;;;;5057395;28;20115;-83
2022/05/16 00:41:48;;;;;;;8.43;3.95;;;;;;;;;;5055314;28;20049;-87
2022/05/16 00:44:15;;;;;;;6.72;3.88;;;;;;;;;;5056237;28;20135;-87
2022/05/16 00:46:41;;;;;;;6.38;2.97;;;;;;;;;;5038835;28;20475;-86
2022/05/16 00:49:27;;;;;;;5.10;2.47;;;;;;;;;;5024928;28;20119;-86
2022/05/16 00:52:10;;;;;;;8.00;2.20;;;;;;;;;;5016068;28;20053;-88
2022/05/16 00:54:39;;;;;;;4.78;2.35;;;;;;;;;;4998668;28;20053;-85
2022/05/16 00:57:07;;;;;;;7.28;2.92;;;;;;;;;;5016208;28;20657;-86
2022/05/16 00:59:56;;;;;;;9.90;2.22;;;;;;;;;;4981649;28;20433;-87
2022/05/16 01:05:09;;;;;;;5.15;2.10;;;;;;;;;;5013495;28;20041;-86
2022/05/16 01:07:40;;;;;;;8.52;2.33;;;;;;;;;;4999418;28;20077;-87
2022/05/16 01:10:07;;;;;;;3.97;1.70;;;;;;;;;;4999973;28;20045;-87
2022/05/16 01:12:35;;;;;;;9.02;2.35;;;;;;;;;;5016967;28;20057;-86
2022/05/16 01:15:03;;;;;;;5.93;2.15;;;;;;;;;;4985568;28;20145;-88
2022/05/16 01:17:29;;;;;;;4.95;2.13;;;;;;;;;;4999585;28;20038;-88
2022/05/16 01:19:56;;;;;;;4.38;1.95;;;;;;;;;;5018218;28;20092;-87
2022/05/16 01:22:28;;;;;;;7.40;2.20;;;;;;;;;;5007802;28;20059;-87
2022/05/16 01:24:55;;;;;;;7.90;2.10;;;;;;;;;;5058319;28;20885;-88
2022/05/16 01:27:22;;;;;;;4.80;1.80;;;;;;;;;;5057668;28;20539;-88
2022/05/16 01:29:49;;;;;;;4.75;2.00;;;;;;;;;;5060432;28;20079;-87
2022/05/16 01:35:07;;;;;;;4.53;1.75;;;;;;;;;;5063832;28;20044;-87
2022/05/16 01:40:18;;;;;;;3.40;1.83;;;;;;;;;;5080868;28;20036;-88
2022/05/16 01:42:44;;;;;;;3.80;1.75;;;;;;;;;;5066451;28;20137;-83
2022/05/16 01:45:10;;;;;;;4.95;1.88;;;;;;;;;;5045888;28;20410;-85
2022/05/16 01:47:36;;;;;;;4.25;1.98;;;;;;;;;;5043664;28;20040;-86
2022/05/16 01:50:02;;;;;;;2.85;1.77;;;;;;;;;;5042948;28;20037;-85
2022/05/16 01:52:28;;;;;;;5.18;1.77;;;;;;;;;;5042226;28;20090;-83
2022/05/16 01:54:54;;;;;;;6.32;1.92;;;;;;;;;;5059345;28;20052;-85
2022/05/16 01:57:20;;;;;;;5.07;1.83;;;;;;;;;;5059424;28;20045;-84
2022/05/16 01:59:46;;;;;;;4.55;1.73;;;;;;;;;;5060869;28;20052;-85
2022/05/16 02:02:13;;;;;;;2.35;1.60;;;;;;;;;;5042528;28;20076;-84
2022/05/16 02:04:39;;;;;;;3.30;1.73;;;;;;;;;;5043966;28;20032;-85
2022/05/16 02:07:05;;;;;;;3.25;1.70;;;;;;;;;;5061156;28;20119;-83
2022/05/16 02:09:31;;;;;;;4.50;1.60;;;;;;;;;;5058647;28;20564;-83
2022/05/16 02:11:57;;;;;;;4.38;1.85;;;;;;;;;;5063240;28;20076;-85
2022/05/16 02:14:26;;;;;;;2.95;1.70;;;;;;;;;;5024807;28;20047;-83
2022/05/16 02:16:55;;;;;;;5.32;1.92;;;;;;;;;;5044057;28;20582;-83
2022/05/16 02:19:21;;;;;;;6.10;1.95;;;;;;;;;;5038830;28;20037;-83
2022/05/16 02:24:42;;;;;;;4.80;1.80;;;;;;;;;;5057426;28;20541;-84
2022/05/16 02:27:13;;;;;;;3.30;1.80;;;;;;;;;;5025599;28;20052;-83
2022/05/16 02:29:40;;;;;;;4.05;1.73;;;;;;;;;;5027390;28;20538;-84
2022/05/16 02:32:06;;;;;;;6.47;1.90;;;;;;;;;;5037796;28;20049;-83
2022/05/16 02:34:32;;;;;;;4.32;2.08;;;;;;;;;;5058038;28;20447;-83
2022/05/16 02:36:59;;;;;;;4.13;1.98;;;;;;;;;;5040334;28;20693;-84
2022/05/16 02:39:25;;;;;;;5.57;1.98;;;;;;;;;;5042739;28;20125;-84
2022/05/16 02:41:52;;;;;;;4.15;1.80;;;;;;;;;;5039677;28;21198;-84
2022/05/16 02:44:20;;;;;;;4.15;1.67;;;;;;;;;;5040004;28;20044;-84
2022/05/16 02:46:46;;;;;;;4.25;1.65;;;;;;;;;;5056412;28;20792;-83
2022/05/16 02:49:12;;;;;;;4.97;1.90;;;;;;;;;;5057992;28;20701;-84
2022/05/16 02:51:38;;;;;;;3.10;1.60;;;;;;;;;;5058970;28;20815;-83
2022/05/16 02:54:05;;;;;;;4.43;2.13;;;;;;;;;;5056639;28;20028;-84
2022/05/16 02:56:31;;;;;;;3.10;2.00;;;;;;;;;;5041386;28;20044;-84
2022/05/16 02:58:58;;;;;;;5.22;1.80;;;;;;;;;;5039825;28;20045;-84
2022/05/16 03:01:24;;;;;;;5.85;1.92;;;;;;;;;;5059183;28;20020;-83
2022/05/16 03:03:50;;;;;;;5.85;2.20;;;;;;;;;;5036973;28;20094;-82
2022/05/16 03:06:19;;;;;;;4.63;1.75;;;;;;;;;;5042756;28;20531;-84
2022/05/16 03:08:46;;;;;;;5.90;2.10;;;;;;;;;;5024617;28;20064;-85
2022/05/16 03:14:35;;;;;;;4.70;1.80;;;;;;;;;;5059970;28;20503;-84
2022/05/16 03:17:02;;;;;;;7.15;1.90;;;;;;;;;;5056916;28;20056;-84
2022/05/16 03:19:28;;;;;;;4.60;1.83;;;;;;;;;;5036476;28;20128;-82
2022/05/16 03:22:56;;;;;;;3.15;1.90;;;;;;;;;;5036885;28;20033;-83
2022/05/16 03:25:03;;;;;;;4.75;1.90;;;;;;;;;;5033502;28;20405;-82
2022/05/16 03:27:29;;;;;;;3.90;1.80;;;;;;;;;;5057610;28;20036;-82
2022/05/16 03:29:55;;;;;;;4.78;2.08;;;;;;;;;;5037479;28;20044;-83
2022/05/16 03:32:21;;;;;;;4.18;1.65;;;;;;;;;;5025115;28;20048;-83
2022/05/16 03:34:57;;;;;;;5.70;1.90;;;;;;;;;;5053900;28;20044;-82
2022/05/16 03:40:46;;;;;;;5.28;1.90;;;;;;;;;;5057774;28;20079;-81
2022/05/16 03:43:13;;;;;;;4.93;1.83;;;;;;;;;;5042917;28;20131;-80
2022/05/16 03:45:40;;;;;;;8.55;2.10;;;;;;;;;;5060258;28;20506;-82
2022/05/16 03:48:09;;;;;;;4.93;2.00;;;;;;;;;;5038971;28;20541;-83
2022/05/16 03:50:36;;;;;;;3.50;1.70;;;;;;;;;;5040972;28;20098;-80
2022/05/16 03:53:02;;;;;;;4.90;2.25;;;;;;;;;;5057310;28;20044;-80
2022/05/16 03:55:30;;;;;;;6.10;2.20;;;;;;;;;;5031591;28;20075;-79
2022/05/16 03:57:56;;;;;;;7.45;2.00;;;;;;;;;;5039112;28;20057;-82
2022/05/16 04:00:23;;;;;;;4.97;1.67;;;;;;;;;;5058925;28;20118;-81
2022/05/16 04:02:51;;;;;;;3.50;1.90;;;;;;;;;;5039099;28;20087;-82
2022/05/16 04:05:19;;;;;;;7.63;2.17;;;;;;;;;;5041809;28;20055;-81
2022/05/16 04:07:47;;;;;;;4.20;1.98;;;;;;;;;;5023735;28;20370;-81
2022/05/16 04:10:13;;;;;;;4.03;2.00;;;;;;;;;;5058224;28;20048;-83
2022/05/16 04:12:39;;;;;;;5.95;2.00;;;;;;;;;;5043194;28;20146;-81
2022/05/16 04:15:06;;;;;;;7.53;2.00;;;;;;;;;;5058611;28;20404;-81
2022/05/16 04:17:33;;;;;;;5.03;2.30;;;;;;;;;;5059433;28;20055;-83
2022/05/16 04:19:59;;;;;;;4.22;2.13;;;;;;;;;;5064588;28;20041;-79
2022/05/16 04:22:25;;;;;;;3.67;1.83;;;;;;;;;;5072627;28;20033;-82
2022/05/16 04:24:52;;;;;;;3.33;1.92;;;;;;;;;;5073923;28;20041;-83
2022/05/16 04:27:18;;;;;;;5.07;1.98;;;;;;;;;;5056209;28;20045;-82
2022/05/16 04:30:14;;;;;;;4.90;1.98;;;;;;;;;;5072807;28;20071;-81
2022/05/16 04:32:40;;;;;;;8.13;2.22;;;;;;;;;;5055348;28;20075;-82
2022/05/16 04:35:07;;;;;;;4.10;1.90;;;;;;;;;;5043602;28;20138;-82
2022/05/16 04:37:33;;;;;;;5.47;1.92;;;;;;;;;;5027873;28;20044;-86
2022/05/16 04:40:00;;;;;;;2.97;1.95;;;;;;;;;;5038004;28;20044;-82
2022/05/16 04:45:36;;;;;;;4.22;2.20;;;;;;;;;;5056966;28;20520;-82
2022/05/16 04:48:06;;;;;;;3.40;1.80;;;;;;;;;;5025881;28;20059;-84
2022/05/16 04:50:33;;;;;;;5.60;2.10;;;;;;;;;;5007297;28;20040;-82
2022/05/16 04:53:00;;;;;;;6.25;2.60;;;;;;;;;;5037134;28;20055;-83
2022/05/16 04:55:27;;;;;;;5.43;2.00;;;;;;;;;;5021597;28;20111;-82
2022/05/16 04:57:53;;;;;;;6.80;2.05;;;;;;;;;;5012454;28;20056;-83
2022/05/16 05:00:20;;;;;;;4.28;2.10;;;;;;;;;;5017790;28;20482;-83
2022/05/16 05:03:15;;;;;;;4.43;2.20;;;;;;;;;;5043917;28;20056;-82
2022/05/16 05:05:41;;;;;;;6.57;2.17;;;;;;;;;;5043618;28;20049;-81
2022/05/16 05:08:07;;;;;;;5.63;2.35;;;;;;;;;;5023257;28;20045;-83
2022/05/16 05:16:08;;;;;;;4.22;2.15;;;;;;;;;;5006353;28;20050;-84
2022/05/16 05:18:49;;;;;;;7.95;2.80;;;;;;;;;;5043823;28;20041;-84
2022/05/16 05:21:15;;;;;;;8.48;2.33;;;;;;;;;;5043881;28;20065;-83
2022/05/16 05:23:41;;;;;;;6.75;2.63;;;;;;;;;;5024516;28;20053;-86
2022/05/16 05:26:09;;;;;;;6.72;2.53;;;;;;;;;;5024943;28;20067;-85
2022/05/16 05:28:35;;;;;;;6.90;2.50;;;;;;;;;;5024845;28;20064;-82
2022/05/16 05:31:02;;;;;;;5.68;2.83;;;;;;;;;;5020918;28;20508;-84
2022/05/16 05:33:28;;;;;;;4.53;2.38;;;;;;;;;;5031186;28;20139;-84
2022/05/16 05:35:54;;;;;;;8.90;2.60;;;;;;;;;;4988987;28;20037;-84
2022/05/16 05:38:21;;;;;;;4.20;2.42;;;;;;;;;;5006773;28;20145;-83
2022/05/16 05:40:49;;;;;;;5.75;2.35;;;;;;;;;;4988954;28;20041;-83
2022/05/16 05:43:19;;;;;;;4.53;2.47;;;;;;;;;;5021122;28;20331;-83
2022/05/16 05:45:45;;;;;;;6.82;2.05;;;;;;;;;;4972342;28;20050;-84
2022/05/16 05:48:11;;;;;;;10.02;2.50;;;;;;;;;;5006046;28;20077;-83
2022/05/16 05:50:37;;;;;;;7.03;2.20;;;;;;;;;;5031779;28;20421;-83
2022/05/16 05:53:04;;;;;;;4.40;2.10;;;;;;;;;;5025894;28;20045;-82
2022/05/16 05:55:30;;;;;;;9.02;2.72;;;;;;;;;;5027583;28;20037;-81
2022/05/16 05:58:08;;;;;;;8.18;2.50;;;;;;;;;;5056620;28;20049;-82
2022/05/16 06:00:41;;;;;;;5.65;2.28;;;;;;;;;;5062564;28;20063;-83
2022/05/16 06:03:08;;;;;;;6.75;2.42;;;;;;;;;;5046496;28;20071;-83
2022/05/16 06:05:34;;;;;;;6.68;2.38;;;;;;;;;;5045623;28;20056;-83
2022/05/16 06:08:00;;;;;;;6.57;2.65;;;;;;;;;;5044770;28;20045;-84
2022/05/16 06:10:26;;;;;;;6.18;2.40;;;;;;;;;;5045394;28;20392;-84
2022/05/16 06:12:53;;;;;;;8.90;2.53;;;;;;;;;;5028098;28;20032;-84
2022/05/16 06:15:25;;;;;;;5.97;2.70;;;;;;;;;;5050110;28;20040;-83
2022/05/16 06:17:51;;;;;;;4.78;2.42;;;;;;;;;;5049333;28;20356;-79
2022/05/16 06:20:17;;;;;;;10.82;2.75;;;;;;;;;;5066388;28;20066;-79
2022/05/16 06:22:43;;;;;;;6.90;2.40;;;;;;;;;;5065059;28;20052;-80
2022/05/16 06:25:32;;;;;;;7.45;2.40;;;;;;;;;;5065908;28;20138;-78
2022/05/16 06:27:59;;;;;;;8.23;2.75;;;;;;;;;;5066164;28;20036;-79
2022/05/16 06:30:25;;;;;;;9.55;3.00;;;;;;;;;;5065570;28;20056;-77
2022/05/16 06:32:52;;;;;;;4.47;2.95;;;;;;;;;;5066440;28;20048;-78
2022/05/16 06:35:18;;;;;;;7.47;2.50;;;;;;;;;;5065471;28;20074;-79
2022/05/16 06:37:45;;;;;;;12.02;2.40;;;;;;;;;;5047244;28;20528;-77
2022/05/16 06:40:12;;;;;;;12.48;2.55;;;;;;;;;;5066298;28;20085;-80
2022/05/16 06:42:39;;;;;;;5.72;2.40;;;;;;;;;;5047402;28;20044;-81
2022/05/16 06:45:05;;;;;;;8.48;2.97;;;;;;;;;;5066405;28;20049;-80
2022/05/16 06:47:32;;;;;;;6.60;2.67;;;;;;;;;;5063958;28;20059;-79
2022/05/16 06:49:58;;;;;;;17.08;3.35;;;;;;;;;;5065788;28;20530;-79
2022/05/16 06:52:24;;;;;;;7.18;2.63;;;;;;;;;;5065842;28;20706;-78
2022/05/16 06:54:51;;;;;;;9.32;3.10;;;;;;;;;;5065564;28;20052;-78
2022/05/16 06:57:17;;;;;;;8.13;3.03;;;;;;;;;;5048073;28;20114;-77
2022/05/16 06:59:43;;;;;;;9.65;2.63;;;;;;;;;;5065985;28;20045;-79
2022/05/16 07:02:10;;;;;;;11.90;3.10;;;;;;;;;;5066000;28;20546;-78
2022/05/16 07:04:37;;;;;;;5.13;2.38;;;;;;;;;;5065763;28;20037;-80
2022/05/16 07:07:08;;;;;;;10.27;2.80;;;;;;;;;;5049037;28;20041;-79
2022/05/16 07:09:36;;;;;;;8.90;2.72;;;;;;;;;;5077986;28;20067;-78
2022/05/16 07:12:02;;;;;;;8.15;2.53;;;;;;;;;;5080603;28;20041;-79
2022/05/16 07:14:28;;;;;;;15.27;2.95;;;;;;;;;;5062654;28;20172;-78
2022/05/16 07:16:54;;;;;;;6.95;2.83;;;;;;;;;;5048385;28;20045;-79
2022/05/16 07:19:20;;;;;;;9.68;2.40;;;;;;;;;;5066978;28;20162;-78
2022/05/16 07:21:46;;;;;;;7.82;2.90;;;;;;;;;;5063984;28;20063;-78
2022/05/16 07:24:12;;;;;;;13.80;3.40;;;;;;;;;;5045966;28;20496;-79
2022/05/16 07:29:24;;;;;;;7.82;3.20;;;;;;;;;;5047226;28;20806;-78
2022/05/16 07:31:51;;;;;;;7.78;2.40;;;;;;;;;;5031340;28;20040;-78
2022/05/16 07:34:17;;;;;;;8.63;2.85;;;;;;;;;;5065428;28;20056;-78
2022/05/16 07:36:44;;;;;;;9.85;3.08;;;;;;;;;;5047567;28;20087;-78
2022/05/16 07:39:10;;;;;;;7.63;2.88;;;;;;;;;;5046094;28;20060;-78
2022/05/16 07:41:38;;;;;;;7.25;2.88;;;;;;;;;;5063194;28;20039;-79
2022/05/16 07:44:04;;;;;;;10.85;2.65;;;;;;;;;;5046746;28;20473;-78
2022/05/16 07:46:30;;;;;;;5.00;2.75;;;;;;;;;;5064518;28;20149;-79
2022/05/16 07:48:56;;;;;;;7.15;2.55;;;;;;;;;;5029785;28;20101;-80
2022/05/16 07:51:22;;;;;;;7.60;2.97;;;;;;;;;;5064618;28;20123;-79
2022/05/16 07:53:48;;;;;;;9.57;2.95;;;;;;;;;;5062620;28;20036;-79
2022/05/16 07:56:14;;;;;;;9.98;3.05;;;;;;;;;;5064062;28;20036;-79
2022/05/16 07:58:40;;;;;;;8.07;2.65;;;;;;;;;;5046963;28;20055;-80
2022/05/16 08:01:06;;;;;;;7.00;2.75;;;;;;;;;;5063709;28;20041;-78
2022/05/16 08:03:33;;;;;;;12.30;3.83;;;;;;;;;;5065027;28;20052;-79
2022/05/16 08:05:59;;;;;;;10.43;3.63;;;;;;;;;;5028842;28;20140;-78
2022/05/16 08:11:11;;;;;;;16.85;3.33;;;;;;;;;;5064304;28;20055;-81
2022/05/16 08:13:38;;;;;;;11.80;3.20;;;;;;;;;;5045675;28;20075;-79
2022/05/16 08:16:04;;;;;;;9.27;2.97;;;;;;;;;;5047287;28;20040;-80
2022/05/16 08:18:30;;;;;;;8.60;3.60;;;;;;;;;;5029688;28;20044;-78
2022/05/16 08:20:56;;;;;;;12.13;3.22;;;;;;;;;;5065037;28;20036;-79
2022/05/16 08:23:25;;;;;;;8.43;2.95;;;;;;;;;;5045032;28;20124;-79
2022/05/16 08:25:52;;;;;;;10.90;3.80;;;;;;;;;;5046360;28;20070;-79
2022/05/16 08:28:19;;;;;;;11.73;3.55;;;;;;;;;;5046741;28;20060;-79
2022/05/16 08:30:45;;;;;;;8.63;3.60;;;;;;;;;;5028421;28;20052;-79
2022/05/16 08:33:12;;;;;;;8.02;2.75;;;;;;;;;;5047648;28;20048;-80
2022/05/16 08:35:38;;;;;;;12.10;3.38;;;;;;;;;;5045525;28;20184;-80
2022/05/16 08:40:55;;;;;;;6.75;2.75;;;;;;;;;;5063210;28;20048;-77
2022/05/16 08:43:40;;;;;;;11.45;3.40;;;;;;;;;;5063941;28;20098;-78
2022/05/16 08:46:26;;;;;;;7.45;3.22;;;;;;;;;;5030109;28;20103;-79
2022/05/16 08:49:10;;;;;;;12.50;3.17;;;;;;;;;;5062833;28;20029;-83
2022/05/16 08:51:36;;;;;;;;;;;;;;;;;;5061751;28;20079;-82
2022/05/16 08:54:10;;;;;;;11.57;2.95;;;;;;;;;;5061002;28;19963;-83
2022/05/16 08:56:38;;;;;;;10.00;2.80;;;;;;;;;;5040939;28;20568;-82
2022/05/16 08:59:09;;;;;;;11.95;3.65;;;;;;;;;;5062919;28;20459;-83
2022/05/16 09:01:44;;;;;;;8.75;3.33;;;;;;;;;;5063468;28;20052;-83
2022/05/16 09:04:18;;;;;;;6.22;2.63;;;;;;;;;;5025431;28;20052;-81
2022/05/16 09:06:54;;;;;;;10.32;3.25;;;;;;;;;;5041311;28;20124;-82
2022/05/16 09:09:23;;;;;;;12.57;2.85;;;;;;;;;;5059191;28;20051;-82
2022/05/16 09:12:15;;;;;;;10.70;3.28;;;;;;;;;;5062084;28;20701;-82
2022/05/16 09:14:52;;;;;;;6.45;2.80;;;;;;;;;;5039783;28;20087;-82
2022/05/16 09:17:46;;;;;;;13.68;3.00;;;;;;;;;;5027450;28;20095;-82
2022/05/16 09:20:30;;;;;;;11.50;2.70;;;;;;;;;;5025497;28;20080;-82
2022/05/16 09:23:05;;;;;;;9.00;2.80;;;;;;;;;;5024983;28;20397;-83
2022/05/16 09:25:49;;;;;;;8.52;3.08;;;;;;;;;;5043945;28;20064;-82
2022/05/16 09:28:37;;;;;;;8.93;2.78;;;;;;;;;;5045372;28;20120;-80
2022/05/16 09:31:08;;;;;;;10.68;3.22;;;;;;;;;;5045392;28;20049;-82
2022/05/16 09:33:35;;;;;;;11.77;3.50;;;;;;;;;;5046370;28;20090;-82
2022/05/16 09:36:01;;;;;;;7.32;2.90;;;;;;;;;;5028943;28;20052;-82
2022/05/16 09:38:27;;;;;;;13.55;3.55;;;;;;;;;;5064161;28;20051;-82
2022/05/16 09:41:13;;;;;;;11.60;3.63;;;;;;;;;;5045060;28;20048;-82
2022/05/16 09:43:42;;;;;;;10.45;3.30;;;;;;;;;;5012343;28;20057;-82
2022/05/16 09:46:20;;;;;;;8.98;3.45;;;;;;;;;;5043148;28;20033;-82
2022/05/16 09:48:46;;;;;;;8.90;3.30;;;;;;;;;;5025977;28;20077;-83
2022/05/16 09:51:15;;;;;;;8.27;3.05;;;;;;;;;;5013404;28;20493;-82
2022/05/16 09:53:43;;;;;;;10.90;3.13;;;;;;;;;;5056558;28;20041;-82
2022/05/16 09:56:18;;;;;;;10.52;3.72;;;;;;;;;;5038655;28;20045;-83
2022/05/16 09:58:47;;;;;;;7.93;3.08;;;;;;;;;;5033349;28;20144;-81
2022/05/16 10:01:27;;;;;;;8.77;3.28;;;;;;;;;;5015082;28;20132;-83
2022/05/16 10:03:53;;;;;;;13.05;3.53;;;;;;;;;;5047274;28;20061;-82
2022/05/16 10:06:41;;;;;;;10.60;3.10;;;;;;;;;;5046407;28;20041;-81
2022/05/16 10:09:16;;;;;;;7.30;2.55;;;;;;;;;;5013443;28;20123;-82
2022/05/16 10:11:44;;;;;;;5.78;3.00;;;;;;;;;;5011166;28;20037;-82
2022/05/16 10:14:11;;;;;;;7.10;2.65;;;;;;;;;;5045746;28;20044;-82
2022/05/16 10:16:38;;;;;;;7.43;2.85;;;;;;;;;;5045729;28;20056;-82
2022/05/16 10:19:06;;;;;;;10.65;3.05;;;;;;;;;;5029436;28;20048;-83
2022/05/16 10:21:35;;;;;;;7.97;2.80;;;;;;;;;;5011928;28;20048;-81
2022/05/16 10:24:02;;;;;;;10.57;2.88;;;;;;;;;;5028092;28;20060;-80
2022/05/16 10:26:31;;;;;;;14.43;2.70;;;;;;;;;;5012614;28;20401;-82
2022/05/16 10:29:01;;;;;;;7.38;2.90;;;;;;;;;;5027626;28;20037;-81
2022/05/16 10:34:38;;;;;;;12.73;2.75;;;;;;;;;;5045567;28;20045;-81
2022/05/16 10:37:07;;;;;;;7.70;3.10;;;;;;;;;;5011346;28;20785;-82
2022/05/16 10:39:33;;;;;;;11.57;3.13;;;;;;;;;;5046573;28;20037;-81
2022/05/16 10:41:59;;;;;;;10.13;2.90;;;;;;;;;;5045198;28;20071;-82
2022/05/16 10:44:47;;;;;;;10.50;3.28;;;;;;;;;;5046657;28;20496;-83
2022/05/16 10:47:32;;;;;;;12.55;3.58;;;;;;;;;;5024739;28;20122;-82
2022/05/16 10:50:10;;;;;;;10.55;3.50;;;;;;;;;;5008025;28;20124;-83
2022/05/16 10:52:45;;;;;;;8.38;2.65;;;;;;;;;;5008040;28;20033;-82
2022/05/16 10:55:11;;;;;;;8.02;2.75;;;;;;;;;;4990802;28;20057;-83
2022/05/16 10:57:37;;;;;;;11.88;2.90;;;;;;;;;;4992332;28;20057;-82
2022/05/16 11:00:07;;;;;;;13.35;3.03;;;;;;;;;;5007274;28;20077;-82
2022/05/16 11:02:52;;;;;;;7.03;2.85;;;;;;;;;;5041858;28;20060;-83
2022/05/16 11:05:21;;;;;;;11.90;3.28;;;;;;;;;;5010426;28;20064;-82
2022/05/16 11:07:56;;;;;;;10.95;3.17;;;;;;;;;;5044586;28;20041;-83
2022/05/16 11:10:29;;;;;;;9.82;3.17;;;;;;;;;;5045955;28;20045;-83
2022/05/16 11:13:11;;;;;;;13.00;3.53;;;;;;;;;;5026026;28;20119;-83
2022/05/16 11:15:37;;;;;;;12.55;3.10;;;;;;;;;;5045593;28;20048;-83
2022/05/16 11:18:03;;;;;;;9.50;2.80;;;;;;;;;;5043164;28;20041;-84
2022/05/16 11:20:29;;;;;;;14.02;3.17;;;;;;;;;;5010054;28;20049;-83
2022/05/16 11:23:14;;;;;;;11.35;3.17;;;;;;;;;;5044585;28;20076;-83
2022/05/16 11:25:50;;;;;;;11.77;3.30;;;;;;;;;;5025945;28;20056;-84
2022/05/16 11:28:24;;;;;;;12.15;3.47;;;;;;;;;;5027434;28;20054;-82
2022/05/16 11:30:55;;;;;;;8.98;3.53;;;;;;;;;;5043464;28;20049;-82
2022/05/16 11:33:34;;;;;;;9.55;2.58;;;;;;;;;;5028200;28;20248;-83
2022/05/16 11:36:03;;;;;;;6.25;2.60;;;;;;;;;;5027730;28;20048;-83
2022/05/16 11:38:32;;;;;;;10.50;2.65;;;;;;;;;;5044707;28;20048;-83
2022/05/16 11:41:08;;;;;;;9.10;2.65;;;;;;;;;;5045288;28;20053;-83
2022/05/16 11:43:43;;;;;;;8.18;2.80;;;;;;;;;;5043767;28;20114;-82
2022/05/16 11:46:40;;;;;;;8.95;2.80;;;;;;;;;;5010587;28;20049;-83
2022/05/16 11:49:27;;;;;;;7.55;3.25;;;;;;;;;;5008806;28;20520;-82
2022/05/16 11:51:59;;;;;;;9.52;3.13;;;;;;;;;;5010349;28;20520;-83
2022/05/16 11:54:31;;;;;;;10.88;3.17;;;;;;;;;;5021630;28;20048;-83
2022/05/16 12:03:08;;;;;;;11.15;3.05;;;;;;;;;;5044693;28;20048;-83
2022/05/16 12:05:37;;;;;;;9.32;3.13;;;;;;;;;;5027332;28;20076;-83
2022/05/16 12:08:13;;;;;;;10.52;3.20;;;;;;;;;;5029213;28;20053;-81
2022/05/16 12:10:55;;;;;;;9.73;3.15;;;;;;;;;;5030242;28;20128;-81
2022/05/16 12:13:28;;;;;;;10.90;3.13;;;;;;;;;;5063145;28;20134;-82
2022/05/16 12:16:12;;;;;;;7.43;2.70;;;;;;;;;;5062772;28;20607;-83
2022/05/16 12:18:43;;;;;;;11.57;3.45;;;;;;;;;;5045164;28;20064;-84
2022/05/16 12:21:21;;;;;;;8.65;3.00;;;;;;;;;;5064703;28;20040;-82
2022/05/16 12:23:50;;;;;;;7.28;3.13;;;;;;;;;;5061685;28;20059;-82
2022/05/16 12:26:28;;;;;;;10.20;3.13;;;;;;;;;;5045904;28;20140;-82
2022/05/16 12:32:40;;;;;;;13.23;3.50;;;;;;;;;;5065997;28;20047;-83
2022/05/16 12:35:36;;;;;;;9.07;2.75;;;;;;;;;;5046227;28;20048;-83
2022/05/16 12:38:02;;;;;;;7.45;2.65;;;;;;;;;;5064639;28;20045;-83
2022/05/16 12:40:31;;;;;;;9.50;2.55;;;;;;;;;;5027314;28;20052;-81
2022/05/16 12:43:13;;;;;;;10.80;2.80;;;;;;;;;;5049373;28;20037;-83
2022/05/16 12:46:10;;;;;;;14.15;3.03;;;;;;;;;;5059799;28;20044;-85
2022/05/16 12:48:36;;;;;;;7.82;2.92;;;;;;;;;;5044179;28;20048;-84
2022/05/16 12:51:27;;;;;;;8.13;2.50;;;;;;;;;;5017867;28;20037;-82
2022/05/16 12:54:03;;;;;;;8.40;2.60;;;;;;;;;;5044540;28;20044;-84
2022/05/16 12:56:30;;;;;;;7.40;2.20;;;;;;;;;;5059345;28;20102;-84
2022/05/16 12:58:56;;;;;;;6.97;2.33;;;;;;;;;;5047424;28;20051;-84
2022/05/16 13:01:27;;;;;;;8.00;2.53;;;;;;;;;;5046877;28;20049;-83
2022/05/16 13:04:05;;;;;;;10.18;2.75;;;;;;;;;;5068683;28;20202;-85
2022/05/16 13:06:37;;;;;;;7.45;2.25;;;;;;;;;;5067004;28;20048;-85
2022/05/16 13:09:15;;;;;;;8.95;2.70;;;;;;;;;;5064944;28;20082;-84
2022/05/16 13:11:47;;;;;;;9.07;2.63;;;;;;;;;;5048575;28;20393;-83
2022/05/16 13:14:13;;;;;;;10.63;2.90;;;;;;;;;;5053126;28;20040;-85
2022/05/16 13:16:41;;;;;;;8.88;2.78;;;;;;;;;;5067195;28;20542;-84
2022/05/16 13:19:26;;;;;;;5.50;2.67;;;;;;;;;;5063918;28;20566;-84
2022/05/16 13:31:35;;;;;;;7.00;2.67;;;;;;;;;;5056557;28;20859;-84
2022/05/16 13:34:01;;;;;;;10.43;2.90;;;;;;;;;;5063908;28;20080;-84
2022/05/16 13:36:27;;;;;;;9.68;3.00;;;;;;;;;;5026575;28;20049;-84
2022/05/16 13:38:54;;;;;;;6.72;2.60;;;;;;;;;;5059030;28;20029;-84
2022/05/16 13:41:23;;;;;;;6.70;2.80;;;;;;;;;;5043937;28;20475;-85
2022/05/16 13:46:38;;;;;;;10.50;2.95;;;;;;;;;;5083187;22;20566;-84
2022/05/16 13:49:11;;;;;;;6.40;2.70;;;;;;;;;;5030563;28;20145;-86
2022/05/16 13:51:45;;;;;;;7.57;2.80;;;;;;;;;;5064627;28;20097;-83
2022/05/16 13:54:15;;;;;;;12.90;3.13;;;;;;;;;;5070111;28;20109;-84
2022/05/16 13:56:55;;;;;;;9.02;3.00;;;;;;;;;;5069730;28;20051;-85
2022/05/16 13:59:25;;;;;;;8.30;3.38;;;;;;;;;;5069122;28;20048;-83
2022/05/16 14:01:54;;;;;;;12.60;3.10;;;;;;;;;;5051108;28;20101;-83
2022/05/16 14:04:23;;;;;;;10.57;3.63;;;;;;;;;;5052299;28;20048;-83
2022/05/16 14:06:50;;;;;;;12.23;3.50;;;;;;;;;;5055872;28;20044;-83
2022/05/16 14:09:21;;;;;;;6.80;3.20;;;;;;;;;;5069590;28;20049;-84
2022/05/16 14:11:49;;;;;;;7.63;2.70;;;;;;;;;;5054567;28;20079;-83
2022/05/16 14:14:16;;;;;;;12.02;3.50;;;;;;;;;;5073391;28;20110;-81
2022/05/16 14:16:54;;;;;;;13.65;3.47;;;;;;;;;;5086540;28;20082;-83
2022/05/16 14:19:32;;;;;;;8.95;3.47;;;;;;;;;;5075124;28;20044;-83
2022/05/16 14:22:07;;;;;;;7.32;2.97;;;;;;;;;;5056789;28;20051;-83
2022/05/16 14:24:44;;;;;;;11.30;3.72;;;;;;;;;;5076414;28;20118;-84
2022/05/16 14:27:29;;;;;;;9.75;3.30;;;;;;;;;;5068729;28;20057;-83
2022/05/16 14:30:17;;;;;;;11.07;4.10;;;;;;;;;;5081129;28;20073;-83
2022/05/16 14:32:49;;;;;;;15.02;4.10;;;;;;;;;;5048833;28;20052;-84
2022/05/16 14:35:20;;;;;;;15.32;4.43;;;;;;;;;;5065916;28;20039;-84
2022/05/16 14:40:51;;;;;;;10.43;3.95;;;;;;;;;;5062908;28;20045;-84
2022/05/16 14:46:52;;;;;;;11.43;4.05;;;;;;;;;;5092409;22;20052;-84
2022/05/16 14:49:15;;;;;;;14.88;4.72;;;;;;;;;;5048242;28;20045;-84
2022/05/16 14:51:49;;;;;;;13.13;4.20;;;;;;;;;;5049927;28;20093;-84
2022/05/16 14:54:24;;;;;;;10.05;3.83;;;;;;;;;;5027912;28;20151;-84
2022/05/16 14:57:11;;;;;;;13.38;3.97;;;;;;;;;;5060173;28;20085;-84
2022/05/16 14:59:37;;;;;;;11.13;3.67;;;;;;;;;;5059164;28;20037;-84
2022/05/16 15:04:49;;;;;;;16.38;5.15;;;;;;;;;;5046051;28;20044;-84
2022/05/16 15:07:16;;;;;;;9.57;5.72;;;;;;;;;;5060945;28;20041;-84
2022/05/16 15:09:42;;;;;;;11.85;5.90;;;;;;;;;;5058758;28;20047;-84
2022/05/16 15:12:30;;;;;;;11.27;5.53;;;25.10;99.90;;;;;;5055302;28;20033;-84
2022/05/16 15:15:09;;;;;;;10.23;6.05;;;;;;;;;;5055062;28;20047;-84
2022/05/16 15:17:44;;;;;;;15.75;6.82;;;;;;;;;;5055192;28;20048;-83
2022/05/16 15:20:26;;;;;;;13.48;6.28;;;;;;;;;;5058458;28;20574;-84
2022/05/16 15:22:58;;;;;;;12.23;6.30;;;;;;;;;;5057728;28;20048;-83
2022/05/16 15:25:43;;;;;;;17.73;7.00;;;;;;;;;;5033418;28;20040;-82
2022/05/16 15:28:24;;;;;;;12.15;7.60;;;;;;;;;;5059140;28;20286;-82
2022/05/16 15:30:50;;;;;;;11.30;8.27;;;;;;;;;;5059488;28;20127;-84
2022/05/16 15:33:17;;;;;;;9.93;6.95;;;;;;;;;;5014256;28;21227;-83
2022/05/16 15:35:44;;;;;;;12.20;7.80;;;;;;;;;;5037317;28;20500;-83
2022/05/16 15:38:16;;;;;;;15.55;8.65;;;;;;;;;;5020523;28;20047;-82
2022/05/16 15:40:43;;;;;;;15.35;8.15;;;;;;;;;;5020720;28;20033;-82
2022/05/16 15:43:09;;;;;;;19.02;9.63;;;;;;;;;;5035641;28;20080;-84
2022/05/16 15:45:38;;;;;;;15.43;8.32;;;;;;;;;;5007448;28;20040;-83
2022/05/16 15:48:15;;;;;;;15.43;8.07;;;;;;;;;;5041962;28;20594;-84
2022/05/16 15:50:42;;;;;;;23.30;9.20;;;;;;;;;;5060514;28;20101;-83
2022/05/16 15:53:09;;;;;;;15.68;8.77;;;;;;;;;;5024760;28;20033;-84
2022/05/16 15:58:31;;;;;;;12.80;8.48;;;;;;;;;;5042649;28;20453;-83
2022/05/16 16:01:00;;;;;;;18.27;9.47;;;;;;;;;;5052542;28;20237;-83
2022/05/16 16:09:09;;;;;;;21.60;10.68;;;;;;;;;;5039904;28;20651;-82
2022/05/16 16:11:41;;;;;;;20.52;11.00;;;;;;;;;;5054127;28;21001;-82
2022/05/16 16:14:07;;;;;;;20.08;11.35;;;;;;;;;;5056037;28;20044;-83